createdAt,value
2023-03-24T00:01:24.767Z,54.57
2023-03-24T00:03:51.373Z,55.00
2023-03-24T00:06:18.027Z,55.11
2023-03-24T00:08:44.577Z,55.44
2023-03-24T00:11:11.138Z,55.08
2023-03-24T00:13:37.678Z,54.87
2023-03-24T00:16:04.239Z,55.36
2023-03-24T00:18:30.846Z,54.74
2023-03-24T00:20:57.397Z,55.09
2023-03-24T00:23:24.038Z,55.18
2023-03-24T00:25:50.582Z,55.03
2023-03-24T00:28:17.203Z,54.92
2023-03-24T00:30:43.948Z,54.87
2023-03-24T00:33:10.644Z,54.96
2023-03-24T00:35:37.241Z,55.79
2023-03-24T00:38:03.860Z,56.55
2023-03-24T00:40:30.406Z,56.13
2023-03-24T00:42:56.980Z,56.11
2023-03-24T00:45:23.840Z,56.15
2023-03-24T00:47:50.709Z,55.69
2023-03-24T00:50:17.372Z,56.08
2023-03-24T00:52:43.998Z,56.42
2023-03-24T00:55:10.627Z,56.67
2023-03-24T00:57:37.239Z,56.59
2023-03-24T01:00:03.783Z,56.51
2023-03-24T01:02:30.431Z,56.65
2023-03-24T01:04:57.044Z,56.70
2023-03-24T01:07:23.601Z,56.99
2023-03-24T01:09:50.259Z,56.65
2023-03-24T01:12:16.851Z,56.76
2023-03-24T01:14:43.396Z,56.60
2023-03-24T01:17:09.989Z,56.45
2023-03-24T01:19:36.568Z,56.58
2023-03-24T01:22:03.098Z,57.03
2023-03-24T01:24:29.713Z,57.12
2023-03-24T01:26:56.296Z,56.81
2023-03-24T01:29:22.897Z,56.96
2023-03-24T01:31:49.539Z,57.15
2023-03-24T01:34:16.178Z,57.53
2023-03-24T01:36:42.744Z,57.99
2023-03-24T01:39:09.979Z,59.66
2023-03-24T01:41:36.562Z,59.22
2023-03-24T01:46:47.227Z,59.11
2023-03-24T01:49:13.787Z,60.59
2023-03-24T01:51:40.385Z,60.30
2023-03-24T01:54:06.938Z,60.65
2023-03-24T01:56:33.671Z,59.80
2023-03-24T01:59:00.262Z,61.27
2023-03-24T02:01:26.867Z,61.05
2023-03-24T02:03:53.504Z,60.55
2023-03-24T02:06:20.189Z,59.95
2023-03-24T02:08:46.911Z,60.06
2023-03-24T02:11:13.516Z,59.18
2023-03-24T02:13:40.065Z,58.74
2023-03-24T02:16:06.736Z,58.69
2023-03-24T02:18:33.398Z,59.83
2023-03-24T02:21:00.015Z,59.85
2023-03-24T02:23:26.613Z,59.65
2023-03-24T02:25:53.210Z,58.70
2023-03-24T02:28:19.761Z,59.27
2023-03-24T02:30:46.472Z,58.38
2023-03-24T02:33:13.210Z,58.70
2023-03-24T02:35:39.816Z,58.87
2023-03-24T02:38:06.479Z,58.89
2023-03-24T02:40:33.067Z,58.34
2023-03-24T02:42:59.690Z,58.25
2023-03-24T02:45:26.238Z,57.99
2023-03-24T02:47:52.839Z,57.63
2023-03-24T02:50:19.408Z,59.06
2023-03-24T02:52:45.992Z,58.28
2023-03-24T02:55:12.580Z,57.98
2023-03-24T02:57:39.164Z,57.95
2023-03-24T03:00:05.724Z,57.99
2023-03-24T03:02:32.338Z,57.76
2023-03-24T03:04:58.974Z,57.58
2023-03-24T03:07:26.700Z,57.99
2023-03-24T03:09:53.300Z,58.94
2023-03-24T03:12:19.922Z,60.43
2023-03-24T03:14:46.575Z,60.61
2023-03-24T03:17:13.165Z,60.15
2023-03-24T03:19:39.726Z,61.89
2023-03-24T03:22:06.341Z,61.27
2023-03-24T03:24:32.934Z,60.68
2023-03-24T03:26:59.660Z,60.54
2023-03-24T03:29:26.217Z,60.50
2023-03-24T03:31:52.846Z,60.31
2023-03-24T03:34:21.478Z,60.53
2023-03-24T03:36:48.092Z,60.00
2023-03-24T03:39:14.737Z,60.26
2023-03-24T03:41:41.277Z,60.53
2023-03-24T03:44:07.865Z,61.45
2023-03-24T03:46:34.565Z,61.77
2023-03-24T03:49:01.224Z,61.70
2023-03-24T03:51:27.882Z,61.66
2023-03-24T03:53:54.439Z,61.25
2023-03-24T03:56:21.008Z,61.02
2023-03-24T03:58:47.593Z,61.99
2023-03-24T04:01:14.213Z,61.31
2023-03-24T04:03:40.965Z,61.50
2023-03-24T04:06:07.641Z,61.29
2023-03-24T04:08:34.275Z,61.07
2023-03-24T04:11:00.829Z,61.40
2023-03-24T04:13:27.375Z,61.04
2023-03-24T04:15:53.952Z,59.82
2023-03-24T04:18:20.556Z,58.81
2023-03-24T04:20:47.237Z,58.73
2023-03-24T04:23:14.476Z,59.49
2023-03-24T04:25:41.259Z,59.46
2023-03-24T04:28:07.817Z,60.11
2023-03-24T04:30:34.369Z,60.32
2023-03-24T04:33:00.968Z,60.47
2023-03-24T04:35:27.526Z,61.54
2023-03-24T04:37:54.114Z,62.75
2023-03-24T04:40:20.722Z,61.90
2023-03-24T04:42:47.348Z,61.37
2023-03-24T04:45:13.912Z,61.50
2023-03-24T04:47:40.528Z,63.32
2023-03-24T04:50:07.102Z,61.77
2023-03-24T04:52:33.691Z,62.07
2023-03-24T04:55:00.269Z,61.91
2023-03-24T04:57:26.836Z,63.02
2023-03-24T04:59:53.439Z,62.81
2023-03-24T05:02:21.683Z,61.81
2023-03-24T05:04:48.502Z,61.72
2023-03-24T05:07:15.077Z,60.73
2023-03-24T05:09:41.686Z,60.90
2023-03-24T05:12:08.253Z,61.05
2023-03-24T05:14:34.865Z,59.88
2023-03-24T05:17:01.406Z,60.17
2023-03-24T05:19:28.031Z,61.23
2023-03-24T05:21:54.602Z,60.52
2023-03-24T05:24:21.141Z,59.92
2023-03-24T05:26:47.741Z,59.92
2023-03-24T05:29:14.294Z,59.21
2023-03-24T05:31:40.842Z,58.56
2023-03-24T05:34:07.427Z,58.81
2023-03-24T05:36:34.265Z,60.21
2023-03-24T05:39:00.857Z,59.86
2023-03-24T05:41:27.397Z,60.06
2023-03-24T05:43:54.079Z,60.23
2023-03-24T05:46:20.640Z,59.06
2023-03-24T05:48:47.356Z,58.34
2023-03-24T05:51:13.994Z,58.35
2023-03-24T05:53:40.567Z,58.17
2023-03-24T05:56:07.187Z,57.87
2023-03-24T05:58:33.766Z,58.76
2023-03-24T06:01:00.359Z,58.27
2023-03-24T06:03:27.072Z,57.81
2023-03-24T06:05:53.697Z,58.22
2023-03-24T06:08:20.292Z,58.88
2023-03-24T06:10:46.907Z,59.59
2023-03-24T06:13:15.426Z,58.55
2023-03-24T06:15:41.999Z,57.73
2023-03-24T06:18:08.663Z,57.05
2023-03-24T06:20:35.266Z,56.71
2023-03-24T06:23:01.875Z,56.51
2023-03-24T06:25:28.436Z,56.60
2023-03-24T06:27:55.030Z,57.27
2023-03-24T06:30:21.646Z,56.30
2023-03-24T06:32:48.359Z,56.50
2023-03-24T06:35:14.956Z,57.07
2023-03-24T06:37:41.564Z,55.92
2023-03-24T06:40:08.299Z,55.73
2023-03-24T06:42:34.844Z,55.07
2023-03-24T06:45:01.470Z,54.55
2023-03-24T06:47:28.071Z,54.11
2023-03-24T06:49:54.685Z,53.30
2023-03-24T06:52:21.239Z,53.17
2023-03-24T06:54:47.781Z,52.27
2023-03-24T06:57:14.496Z,51.97
2023-03-24T06:59:41.127Z,52.28
2023-03-24T07:02:07.842Z,51.48
2023-03-24T07:04:34.465Z,52.08
2023-03-24T07:07:25.876Z,52.51
2023-03-24T07:09:47.694Z,51.68
2023-03-24T07:12:14.916Z,50.85
2023-03-24T07:14:41.554Z,50.74
2023-03-24T07:17:08.163Z,49.90
2023-03-24T07:19:34.717Z,49.39
2023-03-24T07:22:01.314Z,49.34
2023-03-24T07:24:30.563Z,48.68
2023-03-24T07:26:58.205Z,48.36
2023-03-24T07:29:24.779Z,48.73
2023-03-24T07:31:51.431Z,48.68
2023-03-24T07:34:18.084Z,47.78
2023-03-24T07:36:44.699Z,47.41
2023-03-24T07:39:11.262Z,47.00
2023-03-24T07:41:37.825Z,46.74
2023-03-24T07:44:04.369Z,46.57
2023-03-24T07:46:30.983Z,46.24
2023-03-24T07:49:03.269Z,46.16
2023-03-24T07:51:37.888Z,47.18
2023-03-24T07:54:06.341Z,46.35
2023-03-24T07:56:32.951Z,46.45
2023-03-24T07:58:59.574Z,46.26
2023-03-24T08:01:26.278Z,46.47
2023-03-24T08:03:53.073Z,45.89
2023-03-24T08:06:19.761Z,45.84
2023-03-24T08:08:46.370Z,46.06
2023-03-24T08:11:12.927Z,46.16
2023-03-24T08:13:39.465Z,46.25
2023-03-24T08:16:06.020Z,46.05
2023-03-24T08:18:32.584Z,45.63
2023-03-24T08:20:59.180Z,44.90
2023-03-24T08:23:25.775Z,44.74
2023-03-24T08:25:52.314Z,44.48
2023-03-24T08:28:18.890Z,44.19
2023-03-24T08:30:45.592Z,44.02
2023-03-24T08:33:12.674Z,44.05
2023-03-24T08:35:39.413Z,43.61
2023-03-24T08:38:07.167Z,42.95
2023-03-24T08:40:33.853Z,42.47
2023-03-24T08:43:00.441Z,42.94
2023-03-24T08:45:28.091Z,42.49
2023-03-24T08:47:54.774Z,42.04
2023-03-24T08:50:21.366Z,42.18
2023-03-24T08:52:47.937Z,41.75
2023-03-24T08:55:14.526Z,42.40
2023-03-24T08:57:41.121Z,42.29
2023-03-24T09:00:07.670Z,41.58
2023-03-24T09:02:34.296Z,41.09
2023-03-24T09:05:01.319Z,41.13
2023-03-24T09:07:27.958Z,40.68
2023-03-24T09:09:54.545Z,41.22
2023-03-24T09:12:21.101Z,40.43
2023-03-24T09:14:47.671Z,40.41
2023-03-24T09:17:14.243Z,39.74
2023-03-24T09:19:40.771Z,38.82
2023-03-24T09:22:07.329Z,38.70
2023-03-24T09:24:33.889Z,38.81
2023-03-24T09:27:00.569Z,38.31
2023-03-24T09:29:27.133Z,38.02
2023-03-24T09:31:53.730Z,37.23
2023-03-24T09:34:20.290Z,36.36
2023-03-24T09:36:46.865Z,36.40
2023-03-24T09:39:13.407Z,36.96
2023-03-24T09:41:40.064Z,36.46
2023-03-24T09:44:06.614Z,36.82
2023-03-24T09:46:33.174Z,36.60
2023-03-24T09:48:59.787Z,36.74
2023-03-24T09:51:26.400Z,37.97
2023-03-24T09:53:52.996Z,37.88
2023-03-24T09:56:19.562Z,37.70
2023-03-24T09:58:47.176Z,37.04
2023-03-24T10:01:13.784Z,38.41
2023-03-24T10:03:40.488Z,37.68
2023-03-24T10:06:07.041Z,38.39
2023-03-24T10:08:33.613Z,39.65
2023-03-24T10:11:00.190Z,40.34
2023-03-24T10:13:26.749Z,39.49
2023-03-24T10:15:53.672Z,37.74
2023-03-24T10:18:20.494Z,37.03
2023-03-24T10:20:47.071Z,37.47
2023-03-24T10:23:13.649Z,38.89
2023-03-24T10:25:40.187Z,38.52
2023-03-24T10:28:06.776Z,39.11
2023-03-24T10:30:33.386Z,39.05
2023-03-24T10:33:00.005Z,37.43
2023-03-24T10:35:26.616Z,37.07
2023-03-24T10:37:53.180Z,36.90
2023-03-24T10:40:19.733Z,35.69
2023-03-24T10:42:46.303Z,36.41
2023-03-24T10:45:12.886Z,37.91
2023-03-24T10:47:39.535Z,37.17
2023-03-24T10:50:14.253Z,36.32
2023-03-24T10:52:42.186Z,35.68
2023-03-24T10:55:08.815Z,35.08
2023-03-24T10:57:35.378Z,36.60
2023-03-24T11:00:01.980Z,36.35
2023-03-24T11:02:28.680Z,36.52
2023-03-24T11:04:55.442Z,35.82
2023-03-24T11:07:22.029Z,36.29
2023-03-24T11:12:39.701Z,35.70
2023-03-24T11:15:19.675Z,37.39
2023-03-24T11:17:48.264Z,37.54
2023-03-24T11:20:14.926Z,37.19
2023-03-24T11:22:41.525Z,37.12
2023-03-24T11:25:08.084Z,36.84
2023-03-24T11:27:34.600Z,36.88
2023-03-24T11:30:01.167Z,36.63
2023-03-24T11:32:27.748Z,36.95
2023-03-24T11:34:54.349Z,36.87
2023-03-24T11:37:20.892Z,35.90
2023-03-24T11:39:47.449Z,35.85
2023-03-24T11:42:14.027Z,35.63
2023-03-24T11:44:40.872Z,36.55
2023-03-24T11:47:07.647Z,37.56
2023-03-24T11:49:35.226Z,37.90
2023-03-24T11:52:02.293Z,37.15
2023-03-24T11:54:30.105Z,36.64
2023-03-24T11:56:58.733Z,36.04
2023-03-24T11:59:25.325Z,35.82
2023-03-24T12:01:54.223Z,37.07
2023-03-24T12:04:20.809Z,37.00
2023-03-24T12:06:47.422Z,38.28
2023-03-24T12:09:14.420Z,36.70
2023-03-24T12:11:41.055Z,36.38
2023-03-24T12:14:07.619Z,35.37
2023-03-24T12:16:34.287Z,35.13
2023-03-24T12:19:00.856Z,34.99
2023-03-24T12:21:27.555Z,35.04
2023-03-24T12:23:54.132Z,34.87
2023-03-24T12:26:20.731Z,35.53
2023-03-24T12:28:47.289Z,36.38
2023-03-24T12:31:13.869Z,36.90
2023-03-24T12:33:40.457Z,37.16
2023-03-24T12:36:07.159Z,36.40
2023-03-24T12:38:33.737Z,35.95
2023-03-24T12:41:00.301Z,35.41
2023-03-24T12:43:26.882Z,35.30
2023-03-24T12:45:53.503Z,35.09
2023-03-24T12:48:20.137Z,34.76
2023-03-24T12:50:46.740Z,34.70
2023-03-24T12:53:14.305Z,34.61
2023-03-24T12:55:41.025Z,34.76
2023-03-24T12:58:07.630Z,34.89
2023-03-24T13:00:34.199Z,35.17
2023-03-24T13:03:00.949Z,35.20
2023-03-24T13:05:27.660Z,34.72
2023-03-24T13:07:54.352Z,34.03
2023-03-24T13:10:20.923Z,34.39
2023-03-24T13:12:47.533Z,34.12
2023-03-24T13:15:14.170Z,35.00
2023-03-24T13:17:40.749Z,34.86
2023-03-24T13:20:07.337Z,33.99
2023-03-24T13:22:33.945Z,34.72
2023-03-24T13:25:00.518Z,34.73
2023-03-24T13:27:27.074Z,35.89
2023-03-24T13:29:53.840Z,35.59
2023-03-24T13:32:20.386Z,35.12
2023-03-24T13:34:46.948Z,35.04
2023-03-24T13:37:13.570Z,35.57
2023-03-24T13:39:40.230Z,35.39
2023-03-24T13:42:06.818Z,35.48
2023-03-24T13:44:33.390Z,34.87
2023-03-24T13:46:59.965Z,35.00
2023-03-24T13:49:26.623Z,35.40
2023-03-24T13:51:53.170Z,35.33
2023-03-24T13:54:19.711Z,35.45
2023-03-24T13:56:46.357Z,34.54
2023-03-24T13:59:12.934Z,33.85
2023-03-24T14:01:39.579Z,33.83
2023-03-24T14:04:06.213Z,33.62
2023-03-24T14:06:32.769Z,33.44
2023-03-24T14:08:59.329Z,33.98
2023-03-24T14:11:25.883Z,34.12
2023-03-24T14:13:52.442Z,33.81
2023-03-24T14:16:19.061Z,33.16
2023-03-24T14:18:45.665Z,33.72
2023-03-24T14:21:12.286Z,34.63
2023-03-24T14:23:38.827Z,34.47
2023-03-24T14:26:05.398Z,34.69
2023-03-24T14:28:31.984Z,33.93
2023-03-24T14:30:58.681Z,33.01
2023-03-24T14:33:25.308Z,33.20
2023-03-24T14:35:52.007Z,34.61
2023-03-24T14:38:18.621Z,34.33
2023-03-24T14:40:45.166Z,34.47
2023-03-24T14:43:11.724Z,34.14
2023-03-24T14:45:38.303Z,33.28
2023-03-24T14:48:04.877Z,32.95
2023-03-24T14:50:31.452Z,33.28
2023-03-24T14:52:58.046Z,33.20
2023-03-24T14:55:24.629Z,33.30
2023-03-24T14:57:51.251Z,33.34
2023-03-24T15:00:17.823Z,33.99
2023-03-24T15:02:44.406Z,33.57
2023-03-24T15:05:10.989Z,34.18
2023-03-24T15:07:37.678Z,33.46
2023-03-24T15:10:04.345Z,33.13
2023-03-24T15:12:30.994Z,33.55
2023-03-24T15:15:00.822Z,33.12
2023-03-24T15:17:27.562Z,32.87
2023-03-24T15:19:54.104Z,32.61
2023-03-24T15:22:20.670Z,32.78
2023-03-24T15:24:47.232Z,33.38
2023-03-24T15:27:13.815Z,32.08
2023-03-24T15:29:40.369Z,31.55
2023-03-24T15:32:07.002Z,32.27
2023-03-24T15:34:33.579Z,32.82
2023-03-24T15:37:00.130Z,32.24
2023-03-24T15:39:26.706Z,32.58
2023-03-24T15:41:53.296Z,32.79
2023-03-24T15:44:19.865Z,33.16
2023-03-24T15:46:46.524Z,32.83
2023-03-24T15:49:13.135Z,33.41
2023-03-24T15:51:39.716Z,33.24
2023-03-24T15:54:06.277Z,34.08
2023-03-24T15:56:32.886Z,33.43
2023-03-24T15:58:59.712Z,33.24
2023-03-24T16:01:26.293Z,34.06
2023-03-24T16:03:52.876Z,34.00
2023-03-24T16:06:19.564Z,34.41
2023-03-24T16:08:46.121Z,35.23
2023-03-24T16:11:12.689Z,34.02
2023-03-24T16:13:39.397Z,34.57
2023-03-24T16:16:05.949Z,34.34
2023-03-24T16:18:32.521Z,34.21
2023-03-24T16:20:59.106Z,34.21
2023-03-24T16:23:26.834Z,34.24
2023-03-24T16:25:53.482Z,34.26
2023-03-24T16:28:20.044Z,34.25
2023-03-24T16:30:46.790Z,33.88
2023-03-24T16:33:13.512Z,34.28
2023-03-24T16:35:40.127Z,35.17
2023-03-24T16:38:06.706Z,34.78
2023-03-24T16:40:33.286Z,35.02
2023-03-24T16:42:59.862Z,34.57
2023-03-24T16:45:26.464Z,34.42
2023-03-24T16:47:53.112Z,34.20
2023-03-24T16:50:20.704Z,34.53
2023-03-24T16:52:47.251Z,34.81
2023-03-24T16:55:13.826Z,34.94
2023-03-24T16:57:40.379Z,35.95
2023-03-24T17:00:06.957Z,36.13
2023-03-24T17:02:33.580Z,36.33
2023-03-24T17:05:00.211Z,36.26
2023-03-24T17:07:26.739Z,36.30
2023-03-24T17:09:53.285Z,37.35
2023-03-24T17:12:19.876Z,36.28
2023-03-24T17:14:46.436Z,37.06
2023-03-24T17:17:12.980Z,37.00
2023-03-24T17:19:39.520Z,37.24
2023-03-24T17:22:06.087Z,37.52
2023-03-24T17:24:32.685Z,38.31
2023-03-24T17:26:59.317Z,38.92
2023-03-24T17:29:25.898Z,39.53
2023-03-24T17:31:52.537Z,39.90
2023-03-24T17:34:21.985Z,40.32
2023-03-24T17:36:49.074Z,40.19
2023-03-24T17:39:15.671Z,40.42
2023-03-24T17:41:42.228Z,40.30
2023-03-24T17:44:08.820Z,40.24
2023-03-24T17:46:35.473Z,40.29
2023-03-24T17:49:02.101Z,40.45
2023-03-24T17:51:28.644Z,40.50
2023-03-24T17:53:55.221Z,40.56
2023-03-24T17:56:21.820Z,40.20
2023-03-24T17:58:48.448Z,40.56
2023-03-24T18:01:15.052Z,41.15
2023-03-24T18:03:41.674Z,41.21
2023-03-24T18:06:08.311Z,41.72
2023-03-24T18:08:34.937Z,42.00
2023-03-24T18:11:01.655Z,41.87
2023-03-24T18:13:28.240Z,42.15
2023-03-24T18:15:54.805Z,41.98
2023-03-24T18:18:21.413Z,41.99
2023-03-24T18:20:48.190Z,42.05
2023-03-24T18:23:14.943Z,41.79
2023-03-24T18:25:41.541Z,42.04
2023-03-24T18:28:08.103Z,42.15
2023-03-24T18:30:34.729Z,41.82
2023-03-24T18:33:01.346Z,42.17
2023-03-24T18:35:28.118Z,43.32
2023-03-24T18:37:54.750Z,42.58
2023-03-24T18:40:21.393Z,43.25
2023-03-24T18:42:47.966Z,42.84
2023-03-24T18:45:14.993Z,42.28
2023-03-24T18:47:41.697Z,42.23
2023-03-24T18:50:08.335Z,42.48
2023-03-24T18:52:34.929Z,42.47
2023-03-24T18:55:01.513Z,42.86
2023-03-24T18:57:28.093Z,43.13
2023-03-24T18:59:54.655Z,43.50
2023-03-24T19:02:21.248Z,43.15
2023-03-24T19:04:47.848Z,43.26
2023-03-24T19:07:14.533Z,43.50
2023-03-24T19:09:41.434Z,43.43
2023-03-24T19:12:08.012Z,43.91
2023-03-24T19:14:34.573Z,44.16
2023-03-24T19:17:01.116Z,44.35
2023-03-24T19:19:27.707Z,44.58
2023-03-24T19:21:54.262Z,44.23
2023-03-24T19:24:20.825Z,44.44
2023-03-24T19:26:47.409Z,44.33
2023-03-24T19:29:13.994Z,44.55
2023-03-24T19:31:40.594Z,44.13
2023-03-24T19:34:07.169Z,44.95
2023-03-24T19:36:33.748Z,45.47
2023-03-24T19:39:00.295Z,45.13
2023-03-24T19:41:26.890Z,45.22
2023-03-24T19:43:53.455Z,45.13
2023-03-24T19:46:20.121Z,45.30
2023-03-24T19:48:46.935Z,45.28
2023-03-24T19:51:13.498Z,45.85
2023-03-24T19:53:40.128Z,46.01
2023-03-24T19:56:06.729Z,45.66
2023-03-24T19:58:33.267Z,45.63
2023-03-24T20:00:59.829Z,45.98
2023-03-24T20:03:26.507Z,46.08
2023-03-24T20:05:53.322Z,45.99
2023-03-24T20:08:19.934Z,46.63
2023-03-24T20:10:46.623Z,46.91
2023-03-24T20:13:13.232Z,47.40
2023-03-24T20:15:39.834Z,46.94
2023-03-24T20:18:06.427Z,46.97
2023-03-24T20:20:33.034Z,46.50
2023-03-24T20:22:59.571Z,46.57
2023-03-24T20:25:26.173Z,46.35
2023-03-24T20:27:52.774Z,46.80
2023-03-24T20:30:19.341Z,47.41
2023-03-24T20:32:45.919Z,47.79
2023-03-24T20:35:12.545Z,47.67
2023-03-24T20:37:39.170Z,47.73
2023-03-24T20:40:05.801Z,47.86
2023-03-24T20:42:32.375Z,47.66
2023-03-24T20:44:58.923Z,47.44
2023-03-24T20:47:25.577Z,48.10
2023-03-24T20:49:52.182Z,47.94
2023-03-24T20:52:18.739Z,47.97
2023-03-24T20:54:45.287Z,48.71
2023-03-24T20:57:11.896Z,48.39
2023-03-24T20:59:38.498Z,48.10
2023-03-24T21:02:05.144Z,48.01
2023-03-24T21:04:31.752Z,49.01
2023-03-24T21:06:58.342Z,49.01
2023-03-24T21:09:24.893Z,48.83
2023-03-24T21:11:51.460Z,48.94
2023-03-24T21:14:18.007Z,48.87
2023-03-24T21:16:44.657Z,49.21
2023-03-24T21:19:11.313Z,49.26
2023-03-24T21:21:37.878Z,49.07
2023-03-24T21:24:04.455Z,48.95
2023-03-24T21:26:31.017Z,49.31
2023-03-24T21:28:57.587Z,49.58
2023-03-24T21:31:24.164Z,50.13
2023-03-24T21:33:50.820Z,50.89
2023-03-24T21:36:17.445Z,52.06
2023-03-24T21:38:44.101Z,52.84
2023-03-24T21:41:10.653Z,54.31
2023-03-24T21:43:37.222Z,56.06
2023-03-24T21:46:03.874Z,56.37
2023-03-24T21:48:30.546Z,57.62
2023-03-24T21:50:57.301Z,59.34
2023-03-24T21:53:24.038Z,59.06
2023-03-24T21:55:50.983Z,61.00
2023-03-24T21:58:18.057Z,60.98
2023-03-24T22:00:44.615Z,62.54
2023-03-24T22:03:11.203Z,63.20
2023-03-24T22:05:37.822Z,61.40
2023-03-24T22:08:04.379Z,61.06
2023-03-24T22:10:30.940Z,61.16
2023-03-24T22:12:57.500Z,61.13
2023-03-24T22:15:24.054Z,60.73
2023-03-24T22:17:50.667Z,61.42
2023-03-24T22:20:17.306Z,61.45
2023-03-24T22:22:43.877Z,60.97
2023-03-24T22:25:10.441Z,60.48
2023-03-24T22:27:36.993Z,61.31
2023-03-24T22:30:03.577Z,62.00
2023-03-24T22:32:30.193Z,61.41
2023-03-24T22:34:56.823Z,61.47
2023-03-24T22:37:23.447Z,60.93
2023-03-24T22:39:50.028Z,61.01
2023-03-24T22:42:16.576Z,62.13
2023-03-24T22:44:43.137Z,62.50
2023-03-24T22:47:09.735Z,62.87
2023-03-24T22:49:36.278Z,62.37
2023-03-24T22:52:02.836Z,63.50
2023-03-24T22:54:29.411Z,64.45
2023-03-24T22:56:56.026Z,63.23
2023-03-24T22:59:22.658Z,64.18
2023-03-24T23:01:56.111Z,64.43
2023-03-24T23:04:32.724Z,63.16
2023-03-24T23:06:59.280Z,62.64
2023-03-24T23:09:25.867Z,63.05
2023-03-24T23:11:52.440Z,63.52
2023-03-24T23:14:18.991Z,64.18
2023-03-24T23:16:45.676Z,63.39
2023-03-24T23:19:12.311Z,63.69
2023-03-24T23:21:38.865Z,64.52
2023-03-24T23:24:05.448Z,64.89
2023-03-24T23:26:32.023Z,65.04
2023-03-24T23:28:58.593Z,64.88
2023-03-24T23:31:25.172Z,64.86
2023-03-24T23:33:51.827Z,63.73
2023-03-24T23:36:19.372Z,63.01
2023-03-24T23:38:46.071Z,62.72
2023-03-24T23:41:12.645Z,63.51
2023-03-24T23:43:39.324Z,63.39
2023-03-24T23:46:05.930Z,63.94
2023-03-24T23:48:32.509Z,63.26
2023-03-24T23:50:59.086Z,63.56
2023-03-24T23:53:25.657Z,63.07
2023-03-24T23:55:52.336Z,62.93
2023-03-24T23:58:18.962Z,62.49
